createdAt,value
2017-12-28T00:00:03.585Z,0
2017-12-28T00:00:44.135Z,0
2017-12-28T00:01:24.683Z,0
2017-12-28T00:02:05.245Z,0
2017-12-28T00:02:45.787Z,0
2017-12-28T00:03:26.290Z,0
2017-12-28T00:04:06.799Z,0
2017-12-28T00:04:47.337Z,0
2017-12-28T00:05:27.871Z,0
2017-12-28T00:06:08.429Z,0
2017-12-28T00:06:48.986Z,0
2017-12-28T00:07:29.533Z,0
2017-12-28T00:08:10.091Z,0
2017-12-28T00:08:50.651Z,0
2017-12-28T00:09:31.212Z,0
2017-12-28T00:10:11.717Z,0
2017-12-28T00:10:52.244Z,0
2017-12-28T00:11:32.766Z,0
2017-12-28T00:12:13.303Z,0
2017-12-28T00:12:53.837Z,0
2017-12-28T00:13:34.395Z,0
2017-12-28T00:14:14.969Z,0
2017-12-28T00:14:55.527Z,0
2017-12-28T00:15:36.068Z,0
2017-12-28T00:16:16.619Z,0
2017-12-28T00:16:57.157Z,0
2017-12-28T00:17:37.691Z,0
2017-12-28T00:18:18.221Z,0
2017-12-28T00:18:58.776Z,0
2017-12-28T00:19:39.288Z,0
2017-12-28T00:20:19.817Z,0
2017-12-28T00:21:00.340Z,0
2017-12-28T00:21:40.892Z,0
2017-12-28T00:22:21.475Z,0
2017-12-28T00:23:02.041Z,0
2017-12-28T00:23:42.593Z,0
2017-12-28T00:24:23.108Z,0
2017-12-28T00:25:03.653Z,0
2017-12-28T00:25:44.232Z,0
2017-12-28T00:26:24.752Z,0
2017-12-28T00:27:05.523Z,0
2017-12-28T00:27:46.071Z,0
2017-12-28T00:28:26.635Z,0
2017-12-28T00:29:07.162Z,0
2017-12-28T00:29:47.703Z,0
2017-12-28T00:30:28.206Z,0
2017-12-28T00:31:08.746Z,0
2017-12-28T00:31:49.256Z,0
2017-12-28T00:32:29.859Z,0
2017-12-28T00:33:10.354Z,0
2017-12-28T00:33:50.891Z,0
2017-12-28T00:34:31.450Z,0
2017-12-28T00:35:11.993Z,0
2017-12-28T00:35:52.554Z,0
2017-12-28T00:36:33.076Z,0
2017-12-28T00:37:13.621Z,0
2017-12-28T00:37:54.177Z,0
2017-12-28T00:38:34.714Z,0
2017-12-28T00:39:15.234Z,0
2017-12-28T00:39:55.799Z,0
2017-12-28T00:40:36.352Z,0
2017-12-28T00:41:16.875Z,0
2017-12-28T00:41:57.407Z,0
2017-12-28T00:42:37.957Z,0
2017-12-28T00:43:18.489Z,0
2017-12-28T00:43:59.050Z,0
2017-12-28T00:44:39.604Z,0
2017-12-28T00:45:20.156Z,0
2017-12-28T00:46:00.704Z,0
2017-12-28T00:46:41.240Z,0
2017-12-28T00:47:21.765Z,0
2017-12-28T00:48:02.326Z,0
2017-12-28T00:48:42.882Z,0
2017-12-28T00:49:23.409Z,0
2017-12-28T00:50:03.961Z,0
2017-12-28T00:50:44.525Z,0
2017-12-28T00:51:25.052Z,0
2017-12-28T00:52:05.596Z,0
2017-12-28T00:52:46.134Z,0
2017-12-28T00:53:26.699Z,0
2017-12-28T00:54:07.246Z,0
2017-12-28T00:54:47.817Z,0
2017-12-28T00:55:28.373Z,0
2017-12-28T00:56:08.927Z,0
2017-12-28T00:56:49.463Z,0
2017-12-28T00:57:30.051Z,0
2017-12-28T00:58:10.591Z,0
2017-12-28T00:58:51.139Z,0
2017-12-28T00:59:31.672Z,0
2017-12-28T01:00:12.234Z,0
2017-12-28T01:00:52.804Z,0
2017-12-28T01:01:33.351Z,0
2017-12-28T01:02:13.881Z,0
2017-12-28T01:02:54.408Z,0
2017-12-28T01:03:34.960Z,0
2017-12-28T01:04:15.517Z,0
2017-12-28T01:04:56.057Z,0
2017-12-28T01:05:36.587Z,0
2017-12-28T01:06:17.142Z,0
2017-12-28T01:06:57.690Z,0
2017-12-28T01:07:38.238Z,0
2017-12-28T01:08:18.781Z,0
2017-12-28T01:08:59.352Z,0
2017-12-28T01:09:39.884Z,0
2017-12-28T01:10:20.387Z,0
2017-12-28T01:11:00.957Z,0
2017-12-28T01:11:41.526Z,0
2017-12-28T01:12:22.076Z,0
2017-12-28T01:13:02.624Z,0
2017-12-28T01:13:43.166Z,0
2017-12-28T01:14:23.695Z,0
2017-12-28T01:15:04.204Z,0
2017-12-28T01:15:44.754Z,0
2017-12-28T01:16:25.286Z,0
2017-12-28T01:17:05.846Z,0
2017-12-28T01:17:46.381Z,0
2017-12-28T01:18:26.931Z,0
2017-12-28T01:19:07.455Z,0
2017-12-28T01:19:47.981Z,0
2017-12-28T01:20:28.513Z,0
2017-12-28T01:21:09.093Z,0
2017-12-28T01:21:49.613Z,0
2017-12-28T01:22:30.174Z,0
2017-12-28T01:23:10.684Z,0
2017-12-28T01:23:51.191Z,0
2017-12-28T01:24:31.748Z,0
2017-12-28T01:25:12.292Z,0
2017-12-28T01:25:52.823Z,0
2017-12-28T01:26:33.338Z,0
2017-12-28T01:27:13.904Z,0
2017-12-28T01:27:54.458Z,0
2017-12-28T01:28:34.974Z,0
2017-12-28T01:29:15.517Z,0
2017-12-28T01:29:56.045Z,0
2017-12-28T01:30:36.585Z,0
2017-12-28T01:31:17.139Z,0
2017-12-28T01:31:57.658Z,0
2017-12-28T01:32:38.229Z,0
2017-12-28T01:33:18.771Z,0
2017-12-28T01:33:59.322Z,0
2017-12-28T01:34:39.858Z,0
2017-12-28T01:35:20.420Z,0
2017-12-28T01:36:00.971Z,0
2017-12-28T01:36:41.482Z,0
2017-12-28T01:37:22.030Z,0
2017-12-28T01:38:02.591Z,0
2017-12-28T01:38:43.106Z,0
2017-12-28T01:39:23.638Z,0
2017-12-28T01:40:04.131Z,0
2017-12-28T01:40:44.702Z,0
2017-12-28T01:41:25.222Z,0
2017-12-28T01:42:05.726Z,0
2017-12-28T01:42:46.292Z,0
2017-12-28T01:43:26.837Z,0
2017-12-28T01:44:07.407Z,0
2017-12-28T01:44:47.910Z,0
2017-12-28T01:45:28.476Z,0
2017-12-28T01:46:09.049Z,0
2017-12-28T01:46:49.574Z,0
2017-12-28T01:47:30.101Z,0
2017-12-28T01:48:10.670Z,0
2017-12-28T01:48:51.240Z,0
2017-12-28T01:49:31.780Z,0
2017-12-28T01:50:12.325Z,0
2017-12-28T01:50:52.896Z,0
2017-12-28T01:51:33.440Z,0
2017-12-28T01:52:14.012Z,0
2017-12-28T01:52:54.570Z,0
2017-12-28T01:53:35.075Z,0
2017-12-28T01:54:15.645Z,0
2017-12-28T01:54:56.190Z,0
2017-12-28T01:55:36.721Z,0
2017-12-28T01:56:17.243Z,0
2017-12-28T01:56:57.829Z,0
2017-12-28T01:57:38.351Z,0
2017-12-28T01:58:18.931Z,0
2017-12-28T01:58:59.446Z,0
2017-12-28T01:59:39.985Z,0
2017-12-28T02:00:20.514Z,0
2017-12-28T02:01:01.038Z,0
2017-12-28T02:01:41.594Z,0
2017-12-28T02:02:22.133Z,0
2017-12-28T02:03:02.684Z,0
2017-12-28T02:03:43.223Z,0
2017-12-28T02:04:23.774Z,0
2017-12-28T02:05:04.334Z,0
2017-12-28T02:05:44.830Z,0
2017-12-28T02:06:25.362Z,0
2017-12-28T02:07:05.880Z,0
2017-12-28T02:07:46.421Z,0
2017-12-28T02:08:26.969Z,0
2017-12-28T02:09:07.534Z,0
2017-12-28T02:09:48.028Z,0
2017-12-28T02:10:28.560Z,0
2017-12-28T02:11:09.113Z,0
2017-12-28T02:11:49.681Z,0
2017-12-28T02:12:30.245Z,0
2017-12-28T02:13:10.767Z,0
2017-12-28T02:13:51.284Z,0
2017-12-28T02:14:31.849Z,0
2017-12-28T02:15:12.387Z,0
2017-12-28T02:15:52.937Z,0
2017-12-28T02:16:33.486Z,0
2017-12-28T02:17:14.043Z,0
2017-12-28T02:17:54.599Z,0
2017-12-28T02:18:35.118Z,0
2017-12-28T02:19:15.668Z,0
2017-12-28T02:19:56.244Z,0
2017-12-28T02:20:36.820Z,0
2017-12-28T02:21:17.337Z,0
2017-12-28T02:21:57.890Z,0
2017-12-28T02:22:38.448Z,0
2017-12-28T02:23:19.009Z,0
2017-12-28T02:23:59.565Z,0
2017-12-28T02:24:40.105Z,0
2017-12-28T02:25:20.665Z,0
2017-12-28T02:26:01.189Z,0
2017-12-28T02:26:41.708Z,0
2017-12-28T02:27:22.309Z,0
2017-12-28T02:28:02.813Z,0
2017-12-28T02:28:43.371Z,0
2017-12-28T02:29:23.877Z,0
2017-12-28T02:30:04.426Z,0
2017-12-28T02:30:44.957Z,0
2017-12-28T02:31:25.509Z,0
2017-12-28T02:32:06.053Z,0
2017-12-28T02:32:46.597Z,0
2017-12-28T02:33:27.115Z,0
2017-12-28T02:34:07.650Z,0
2017-12-28T02:34:48.191Z,0
2017-12-28T02:35:28.714Z,0
2017-12-28T02:36:09.248Z,0
2017-12-28T02:36:49.786Z,0
2017-12-28T02:37:30.368Z,0
2017-12-28T02:38:10.861Z,0
2017-12-28T02:38:51.424Z,0
2017-12-28T02:39:31.933Z,0
2017-12-28T02:40:12.459Z,0
2017-12-28T02:40:53.023Z,0
2017-12-28T02:41:33.583Z,0
2017-12-28T02:42:14.099Z,0
2017-12-28T02:42:54.628Z,0
2017-12-28T02:43:35.206Z,0
2017-12-28T02:44:15.772Z,0
2017-12-28T02:44:56.304Z,0
2017-12-28T02:45:36.875Z,0
2017-12-28T02:46:17.420Z,0
2017-12-28T02:46:57.914Z,0
2017-12-28T02:47:38.441Z,0
2017-12-28T02:48:18.978Z,0
2017-12-28T02:48:59.540Z,0
2017-12-28T02:49:40.088Z,0
2017-12-28T02:50:20.652Z,0
2017-12-28T02:51:01.151Z,0
2017-12-28T02:51:41.733Z,0
2017-12-28T02:52:22.261Z,0
2017-12-28T02:53:02.837Z,0
2017-12-28T02:53:43.334Z,0
2017-12-28T02:54:23.862Z,0
2017-12-28T02:55:04.413Z,0
2017-12-28T02:55:44.953Z,0
2017-12-28T02:56:25.532Z,0
2017-12-28T02:57:06.046Z,0
2017-12-28T02:57:46.583Z,0
2017-12-28T02:58:27.101Z,0
2017-12-28T02:59:07.634Z,0
2017-12-28T02:59:48.177Z,0
2017-12-28T03:00:28.710Z,0
2017-12-28T03:01:09.277Z,0
2017-12-28T03:01:49.796Z,0
2017-12-28T03:02:30.316Z,0
2017-12-28T03:03:10.856Z,0
2017-12-28T03:03:51.431Z,0
2017-12-28T03:04:31.951Z,0
2017-12-28T03:05:12.492Z,0
2017-12-28T03:05:53.028Z,0
2017-12-28T03:06:33.537Z,0
2017-12-28T03:07:14.084Z,0
2017-12-28T03:07:54.630Z,0
2017-12-28T03:08:35.176Z,0
2017-12-28T03:09:15.739Z,0
2017-12-28T03:09:56.282Z,0
2017-12-28T03:10:36.808Z,0
2017-12-28T03:11:17.325Z,0
2017-12-28T03:11:57.878Z,0
2017-12-28T03:12:38.446Z,0
2017-12-28T03:13:18.977Z,0
2017-12-28T03:13:59.483Z,0
2017-12-28T03:14:40.041Z,0
2017-12-28T03:15:20.562Z,0
2017-12-28T03:16:01.130Z,0
2017-12-28T03:16:41.618Z,0
2017-12-28T03:17:22.162Z,0
2017-12-28T03:18:02.717Z,0
2017-12-28T03:18:43.245Z,0
2017-12-28T03:19:23.773Z,0
2017-12-28T03:20:04.324Z,0
2017-12-28T03:20:44.878Z,0
2017-12-28T03:21:25.423Z,0
2017-12-28T03:22:05.983Z,0
2017-12-28T03:22:46.491Z,0
2017-12-28T03:23:27.033Z,0
2017-12-28T03:24:07.600Z,0
2017-12-28T03:24:48.134Z,0
2017-12-28T03:25:28.640Z,0
2017-12-28T03:26:09.230Z,0
2017-12-28T03:26:49.753Z,0
2017-12-28T03:27:30.310Z,0
2017-12-28T03:28:10.868Z,0
2017-12-28T03:28:51.385Z,0
2017-12-28T03:29:31.906Z,0
2017-12-28T03:30:12.440Z,0
2017-12-28T03:30:52.987Z,0
2017-12-28T03:31:33.507Z,0
2017-12-28T03:32:14.068Z,0
2017-12-28T03:32:54.577Z,0
2017-12-28T03:33:35.126Z,0
2017-12-28T03:34:15.680Z,0
2017-12-28T03:34:56.234Z,0
2017-12-28T03:35:36.748Z,0
2017-12-28T03:36:17.280Z,0
2017-12-28T03:36:57.826Z,0
2017-12-28T03:37:38.361Z,0
2017-12-28T03:38:18.892Z,0
2017-12-28T03:38:59.450Z,0
2017-12-28T03:39:39.994Z,0
2017-12-28T03:40:20.517Z,0
2017-12-28T03:41:01.064Z,0
2017-12-28T03:41:41.582Z,0
2017-12-28T03:42:22.152Z,0
2017-12-28T03:43:02.657Z,0
2017-12-28T03:43:43.205Z,0
2017-12-28T03:44:23.719Z,0
2017-12-28T03:45:04.266Z,0
2017-12-28T03:45:44.803Z,0
2017-12-28T03:46:25.380Z,0
2017-12-28T03:47:05.836Z,0
2017-12-28T03:47:46.437Z,0
2017-12-28T03:48:26.984Z,0
2017-12-28T03:49:07.549Z,0
2017-12-28T03:49:48.075Z,0
2017-12-28T03:50:28.600Z,0
2017-12-28T03:51:09.139Z,0
2017-12-28T03:51:49.689Z,0
2017-12-28T03:52:30.231Z,0
2017-12-28T03:53:10.793Z,0
2017-12-28T03:53:51.333Z,0
2017-12-28T03:54:31.908Z,0
2017-12-28T03:55:12.409Z,0
2017-12-28T03:55:52.944Z,0
2017-12-28T03:56:33.537Z,0
2017-12-28T03:57:14.054Z,0
2017-12-28T03:57:54.634Z,0
2017-12-28T03:58:35.155Z,0
2017-12-28T03:59:15.699Z,0
2017-12-28T03:59:56.212Z,0
2017-12-28T04:00:36.747Z,0
2017-12-28T04:01:17.264Z,0
2017-12-28T04:01:57.830Z,0
2017-12-28T04:02:38.339Z,0
2017-12-28T04:03:18.896Z,0
2017-12-28T04:03:59.449Z,0
2017-12-28T04:04:39.994Z,0
2017-12-28T04:05:20.582Z,0
2017-12-28T04:06:01.110Z,0
2017-12-28T04:06:41.688Z,0
2017-12-28T04:07:22.270Z,0
2017-12-28T04:08:02.833Z,0
2017-12-28T04:08:43.369Z,0
2017-12-28T04:09:23.887Z,0
2017-12-28T04:10:04.458Z,0
2017-12-28T04:10:45.002Z,0
2017-12-28T04:11:25.573Z,0
2017-12-28T04:12:06.111Z,0
2017-12-28T04:12:46.643Z,0
2017-12-28T04:13:27.160Z,0
2017-12-28T04:14:07.710Z,0
2017-12-28T04:14:48.237Z,0
2017-12-28T04:15:28.768Z,0
2017-12-28T04:16:09.268Z,0
2017-12-28T04:16:49.827Z,0
2017-12-28T04:17:30.361Z,0
2017-12-28T04:18:10.912Z,0
2017-12-28T04:18:51.439Z,0
2017-12-28T04:19:31.966Z,0
2017-12-28T04:20:12.510Z,0
2017-12-28T04:20:53.060Z,0
2017-12-28T04:21:33.625Z,0
2017-12-28T04:22:14.172Z,0
2017-12-28T04:22:54.692Z,0
2017-12-28T04:23:35.220Z,0
2017-12-28T04:24:15.837Z,0
2017-12-28T04:24:56.312Z,0
2017-12-28T04:25:36.843Z,0
2017-12-28T04:26:17.435Z,0
2017-12-28T04:26:57.954Z,0
2017-12-28T04:27:38.497Z,0
2017-12-28T04:28:19.064Z,0
2017-12-28T04:28:59.588Z,0
2017-12-28T04:29:40.140Z,0
2017-12-28T04:30:21.397Z,0
2017-12-28T04:31:01.247Z,0
2017-12-28T04:31:41.798Z,0
2017-12-28T04:32:22.313Z,0
2017-12-28T04:33:02.870Z,0
2017-12-28T04:33:43.385Z,0
2017-12-28T04:34:23.917Z,0
2017-12-28T04:35:04.447Z,0
2017-12-28T04:35:44.992Z,0
2017-12-28T04:36:25.549Z,0
2017-12-28T04:37:06.049Z,0
2017-12-28T04:37:46.610Z,0
2017-12-28T04:38:27.115Z,0
2017-12-28T04:39:07.673Z,0
2017-12-28T04:39:48.256Z,0
2017-12-28T04:40:28.732Z,0
2017-12-28T04:41:09.285Z,0
2017-12-28T04:41:49.840Z,0
2017-12-28T04:42:30.393Z,0
2017-12-28T04:43:10.912Z,0
2017-12-28T04:43:51.476Z,0
2017-12-28T04:44:32.002Z,0
2017-12-28T04:45:12.557Z,0
2017-12-28T04:45:53.110Z,0
2017-12-28T04:46:33.653Z,0
2017-12-28T04:47:14.210Z,0
2017-12-28T04:47:54.762Z,0
2017-12-28T04:48:35.334Z,0
2017-12-28T04:49:15.854Z,0
2017-12-28T04:49:56.316Z,0
2017-12-28T04:50:36.870Z,0
2017-12-28T04:51:17.382Z,0
2017-12-28T04:51:57.953Z,0
2017-12-28T04:52:38.470Z,0
2017-12-28T04:53:19.004Z,0
2017-12-28T04:53:59.515Z,0
2017-12-28T04:54:40.074Z,0
2017-12-28T04:55:20.620Z,0
2017-12-28T04:56:01.163Z,0
2017-12-28T04:56:41.700Z,0
2017-12-28T04:57:22.221Z,0
2017-12-28T04:58:02.801Z,0
2017-12-28T04:58:43.308Z,0
2017-12-28T04:59:23.887Z,0
2017-12-28T05:00:04.404Z,0
2017-12-28T05:00:44.996Z,0
2017-12-28T05:01:25.466Z,0
2017-12-28T05:02:06.002Z,0
2017-12-28T05:02:46.570Z,0
2017-12-28T05:03:27.121Z,0
2017-12-28T05:04:07.666Z,0
2017-12-28T05:04:48.197Z,0
2017-12-28T05:05:28.742Z,0
2017-12-28T05:06:09.263Z,0
2017-12-28T05:06:49.781Z,0
2017-12-28T05:07:30.352Z,0
2017-12-28T05:08:10.874Z,0
2017-12-28T05:08:51.400Z,0
2017-12-28T05:09:31.929Z,0
2017-12-28T05:10:12.471Z,0
2017-12-28T05:10:53.016Z,0
2017-12-28T05:11:33.560Z,0
2017-12-28T05:12:14.093Z,0
2017-12-28T05:12:54.607Z,0
2017-12-28T05:13:35.147Z,0
2017-12-28T05:14:15.641Z,0
2017-12-28T05:14:56.184Z,0
2017-12-28T05:15:36.734Z,0
2017-12-28T05:16:17.275Z,0
2017-12-28T05:16:57.841Z,0
2017-12-28T05:17:38.370Z,0
2017-12-28T05:18:18.940Z,0
2017-12-28T05:18:59.466Z,0
2017-12-28T05:19:40.032Z,0
2017-12-28T05:20:20.544Z,0
2017-12-28T05:21:01.081Z,0
2017-12-28T05:21:41.692Z,0
2017-12-28T05:22:22.200Z,0
2017-12-28T05:23:02.728Z,0
2017-12-28T05:23:43.266Z,0
2017-12-28T05:24:23.835Z,0
2017-12-28T05:25:04.370Z,0
2017-12-28T05:25:44.902Z,0
2017-12-28T05:26:25.476Z,0
2017-12-28T05:27:06.059Z,0
2017-12-28T05:27:46.624Z,0
2017-12-28T05:28:27.158Z,0
2017-12-28T05:29:07.657Z,0
2017-12-28T05:29:48.227Z,0
2017-12-28T05:30:28.719Z,0
2017-12-28T05:31:09.320Z,0
2017-12-28T05:31:49.822Z,0
2017-12-28T05:32:30.376Z,0
2017-12-28T05:33:10.926Z,0
2017-12-28T05:33:51.459Z,0
2017-12-28T05:34:32.012Z,0
2017-12-28T05:35:12.533Z,0
2017-12-28T05:35:53.021Z,0
2017-12-28T05:36:33.567Z,0
2017-12-28T05:37:14.126Z,0
2017-12-28T05:37:54.668Z,0
2017-12-28T05:38:35.194Z,0
2017-12-28T05:39:15.732Z,0
2017-12-28T05:39:56.312Z,0
2017-12-28T05:40:36.866Z,0
2017-12-28T05:41:17.437Z,0
2017-12-28T05:41:57.962Z,0
2017-12-28T05:42:38.515Z,0
2017-12-28T05:43:19.060Z,0
2017-12-28T05:43:59.605Z,0
2017-12-28T05:44:40.151Z,0
2017-12-28T05:45:20.683Z,0
2017-12-28T05:46:01.264Z,0
2017-12-28T05:46:41.749Z,0
2017-12-28T05:47:22.269Z,0
2017-12-28T05:48:02.811Z,0
2017-12-28T05:48:43.351Z,0
2017-12-28T05:49:23.894Z,0
2017-12-28T05:50:04.492Z,0
2017-12-28T05:50:45.034Z,0
2017-12-28T05:51:25.560Z,0
2017-12-28T05:52:06.135Z,0
2017-12-28T05:52:46.624Z,0
2017-12-28T05:53:27.203Z,0
2017-12-28T05:54:07.708Z,0
2017-12-28T05:54:48.219Z,0
2017-12-28T05:55:28.766Z,0
2017-12-28T05:56:09.288Z,0
2017-12-28T05:56:49.800Z,0
2017-12-28T05:57:30.312Z,0
2017-12-28T05:58:10.903Z,0
2017-12-28T05:58:51.401Z,0
2017-12-28T05:59:31.951Z,0
2017-12-28T06:00:12.530Z,0
2017-12-28T06:00:53.005Z,0
2017-12-28T06:01:33.563Z,0
2017-12-28T06:02:14.117Z,0
2017-12-28T06:02:54.652Z,0
2017-12-28T06:03:35.168Z,0
2017-12-28T06:04:15.712Z,0
2017-12-28T06:04:56.240Z,0
2017-12-28T06:05:36.768Z,0
2017-12-28T06:06:17.284Z,0
2017-12-28T06:06:57.844Z,0
2017-12-28T06:07:38.371Z,0
2017-12-28T06:08:18.921Z,0
2017-12-28T06:08:59.494Z,0
2017-12-28T06:09:40.028Z,0
2017-12-28T06:10:20.571Z,0
2017-12-28T06:11:01.079Z,0
2017-12-28T06:11:41.612Z,0
2017-12-28T06:12:22.154Z,0
2017-12-28T06:13:02.704Z,0
2017-12-28T06:13:43.278Z,0
2017-12-28T06:14:23.798Z,0
2017-12-28T06:15:04.361Z,0
2017-12-28T06:15:44.918Z,0
2017-12-28T06:16:25.441Z,0
2017-12-28T06:17:05.967Z,0
2017-12-28T06:17:46.480Z,0
2017-12-28T06:18:26.979Z,0
2017-12-28T06:19:07.499Z,0
2017-12-28T06:19:48.068Z,0
2017-12-28T06:20:28.592Z,0
2017-12-28T06:21:09.125Z,0
2017-12-28T06:21:49.670Z,0
2017-12-28T06:22:30.235Z,0
2017-12-28T06:23:10.717Z,0
2017-12-28T06:23:51.289Z,0
2017-12-28T06:24:31.788Z,0
2017-12-28T06:25:12.329Z,0
2017-12-28T06:25:52.874Z,0
2017-12-28T06:26:33.408Z,0
2017-12-28T06:27:13.946Z,0
2017-12-28T06:27:54.464Z,0
2017-12-28T06:28:35.020Z,0
2017-12-28T06:29:15.580Z,0
2017-12-28T06:29:56.129Z,0
2017-12-28T06:30:36.642Z,0
2017-12-28T06:31:17.181Z,0
2017-12-28T06:31:57.727Z,0
2017-12-28T06:32:38.227Z,0
2017-12-28T06:33:18.819Z,0
2017-12-28T06:33:59.364Z,0
2017-12-28T06:34:39.882Z,0
2017-12-28T06:35:20.470Z,0
2017-12-28T06:36:01.010Z,0
2017-12-28T06:36:41.495Z,0
2017-12-28T06:37:22.068Z,0
2017-12-28T06:38:02.563Z,0
2017-12-28T06:38:43.138Z,0
2017-12-28T06:39:23.676Z,0
2017-12-28T06:40:04.222Z,0
2017-12-28T06:40:44.769Z,0
2017-12-28T06:41:25.329Z,0
2017-12-28T06:42:05.835Z,0
2017-12-28T06:42:46.422Z,0
2017-12-28T06:43:26.923Z,0
2017-12-28T06:44:07.474Z,0
2017-12-28T06:44:48.090Z,0
2017-12-28T06:45:28.584Z,0
2017-12-28T06:46:09.927Z,0
2017-12-28T06:46:49.677Z,0
2017-12-28T06:47:31.331Z,0
2017-12-28T06:48:11.958Z,0
2017-12-28T06:48:52.517Z,0
2017-12-28T06:49:33.056Z,0
2017-12-28T06:50:13.618Z,0
2017-12-28T06:50:54.156Z,0
2017-12-28T06:51:34.668Z,0
2017-12-28T06:52:15.235Z,0
2017-12-28T06:52:55.793Z,0
2017-12-28T06:53:36.370Z,0
2017-12-28T06:54:17.024Z,0
2017-12-28T06:54:57.554Z,0
2017-12-28T06:55:38.111Z,0
2017-12-28T06:56:18.670Z,0
2017-12-28T06:56:59.212Z,0
2017-12-28T06:57:39.790Z,0
2017-12-28T06:58:20.310Z,0
2017-12-28T06:59:00.838Z,0
2017-12-28T06:59:41.399Z,0
2017-12-28T07:00:21.929Z,0
2017-12-28T07:01:02.447Z,0
2017-12-28T07:01:42.982Z,0
2017-12-28T07:02:23.539Z,0
2017-12-28T07:03:04.080Z,0
2017-12-28T07:03:44.603Z,0
2017-12-28T07:04:25.179Z,0
2017-12-28T07:05:05.648Z,0
2017-12-28T07:05:46.241Z,0
2017-12-28T07:06:26.726Z,0
2017-12-28T07:07:07.258Z,0
2017-12-28T07:07:47.787Z,0
2017-12-28T07:08:28.323Z,0
2017-12-28T07:09:08.862Z,0
2017-12-28T07:09:49.405Z,0
2017-12-28T07:10:29.982Z,0
2017-12-28T07:11:10.496Z,0
2017-12-28T07:11:51.016Z,0
2017-12-28T07:12:31.571Z,0
2017-12-28T07:13:12.093Z,0
2017-12-28T07:13:52.652Z,0
2017-12-28T07:14:33.208Z,0
2017-12-28T07:15:13.745Z,0
2017-12-28T07:15:54.279Z,0
2017-12-28T07:16:34.788Z,0
2017-12-28T07:17:15.371Z,0
2017-12-28T07:17:55.911Z,0
2017-12-28T07:18:36.420Z,0
2017-12-28T07:19:16.964Z,0
2017-12-28T07:19:57.514Z,0
2017-12-28T07:20:38.036Z,0
2017-12-28T07:21:18.538Z,0
2017-12-28T07:21:59.058Z,0
2017-12-28T07:22:39.608Z,0
2017-12-28T07:23:20.189Z,0
2017-12-28T07:24:00.671Z,0
2017-12-28T07:24:41.316Z,0
2017-12-28T07:25:21.861Z,0
2017-12-28T07:26:02.388Z,0
2017-12-28T07:26:42.897Z,0
2017-12-28T07:27:23.444Z,0
2017-12-28T07:28:03.985Z,0
2017-12-28T07:28:44.553Z,0
2017-12-28T07:29:25.123Z,0
2017-12-28T07:30:05.632Z,0
2017-12-28T07:30:46.187Z,5
2017-12-28T07:31:26.764Z,5
2017-12-28T07:32:07.315Z,5
2017-12-28T07:32:47.872Z,5
2017-12-28T07:33:28.415Z,5
2017-12-28T07:34:08.947Z,5
2017-12-28T07:34:49.526Z,5
2017-12-28T07:35:30.366Z,5
2017-12-28T07:36:12.493Z,5
2017-12-28T07:36:53.041Z,5
2017-12-28T07:37:33.616Z,5
2017-12-28T07:38:14.151Z,5
2017-12-28T07:38:54.694Z,5
2017-12-28T07:39:35.262Z,5
2017-12-28T07:40:15.783Z,5
2017-12-28T07:40:56.351Z,5
2017-12-28T07:41:36.898Z,10
2017-12-28T07:42:17.479Z,10
2017-12-28T07:42:58.016Z,10
2017-12-28T07:43:38.568Z,10
2017-12-28T07:44:19.149Z,10
2017-12-28T07:44:59.674Z,10
2017-12-28T07:45:40.259Z,10
2017-12-28T07:46:20.799Z,10
2017-12-28T07:47:01.331Z,10
2017-12-28T07:47:41.864Z,10
2017-12-28T07:48:22.421Z,10
2017-12-28T07:49:02.957Z,10
2017-12-28T07:49:43.542Z,10
2017-12-28T07:50:24.029Z,15
2017-12-28T07:51:04.573Z,15
2017-12-28T07:51:45.097Z,15
2017-12-28T07:52:25.651Z,15
2017-12-28T07:53:06.146Z,15
2017-12-28T07:53:46.686Z,20
2017-12-28T07:54:27.278Z,20
2017-12-28T07:55:07.858Z,20
2017-12-28T07:55:48.347Z,20
2017-12-28T07:56:28.894Z,20
2017-12-28T07:57:09.434Z,20
2017-12-28T07:57:50.073Z,20
2017-12-28T07:58:30.641Z,20
2017-12-28T07:59:11.165Z,20
2017-12-28T07:59:51.729Z,20
2017-12-28T08:00:32.260Z,20
2017-12-28T08:01:12.784Z,25
2017-12-28T08:01:53.300Z,25
2017-12-28T08:02:33.859Z,25
2017-12-28T08:03:14.377Z,25
2017-12-28T08:03:54.873Z,25
2017-12-28T08:04:35.406Z,25
2017-12-28T08:05:15.920Z,25
2017-12-28T08:05:56.449Z,25
2017-12-28T08:06:36.997Z,25
2017-12-28T08:07:17.569Z,25
2017-12-28T08:07:58.071Z,20
2017-12-28T08:08:38.618Z,20
2017-12-28T08:09:19.160Z,20
2017-12-28T08:09:59.756Z,20
2017-12-28T08:10:40.263Z,20
2017-12-28T08:11:20.817Z,20
2017-12-28T08:12:01.359Z,20
2017-12-28T08:12:41.961Z,20
2017-12-28T08:13:22.466Z,20
2017-12-28T08:14:03.041Z,20
2017-12-28T08:14:43.608Z,20
2017-12-28T08:15:24.136Z,20
2017-12-28T08:16:04.633Z,20
2017-12-28T08:16:45.226Z,20
2017-12-28T08:17:25.691Z,20
2017-12-28T08:18:06.250Z,20
2017-12-28T08:18:46.799Z,20
2017-12-28T08:19:27.309Z,20
2017-12-28T08:20:07.865Z,20
2017-12-28T08:20:48.363Z,15
2017-12-28T08:21:28.902Z,15
2017-12-28T08:22:09.402Z,15
2017-12-28T08:22:49.988Z,15
2017-12-28T08:23:30.532Z,15
2017-12-28T08:24:11.121Z,15
2017-12-28T08:24:51.724Z,15
2017-12-28T08:25:32.181Z,15
2017-12-28T08:26:12.747Z,15
2017-12-28T08:26:53.275Z,15
2017-12-28T08:27:33.820Z,15
2017-12-28T08:28:14.377Z,15
2017-12-28T08:28:55.015Z,15
2017-12-28T08:29:35.497Z,15
2017-12-28T08:30:16.035Z,15
2017-12-28T08:30:56.568Z,20
2017-12-28T08:31:37.178Z,20
2017-12-28T08:32:17.692Z,20
2017-12-28T08:32:58.182Z,20
2017-12-28T08:33:38.718Z,20
2017-12-28T08:34:19.235Z,20
2017-12-28T08:34:59.823Z,20
2017-12-28T08:35:40.323Z,20
2017-12-28T08:36:20.897Z,20
2017-12-28T08:37:01.402Z,15
2017-12-28T08:37:41.918Z,15
2017-12-28T08:38:22.491Z,15
2017-12-28T08:39:03.058Z,15
2017-12-28T08:39:43.541Z,15
2017-12-28T08:40:24.110Z,15
2017-12-28T08:41:04.596Z,20
2017-12-28T08:41:45.160Z,20
2017-12-28T08:42:25.695Z,20
2017-12-28T08:43:06.221Z,20
2017-12-28T08:43:46.719Z,20
2017-12-28T08:44:27.265Z,20
2017-12-28T08:45:07.813Z,20
2017-12-28T08:45:48.339Z,20
2017-12-28T08:46:28.841Z,20
2017-12-28T08:47:09.383Z,20
2017-12-28T08:47:49.918Z,20
2017-12-28T08:48:30.407Z,25
2017-12-28T08:49:10.897Z,25
2017-12-28T08:49:51.448Z,25
2017-12-28T08:50:32.048Z,25
2017-12-28T08:51:12.470Z,30
2017-12-28T08:51:53.950Z,30
2017-12-28T08:52:33.542Z,25
2017-12-28T08:53:14.043Z,25
2017-12-28T08:53:54.631Z,20
2017-12-28T08:54:35.146Z,20
2017-12-28T08:55:15.660Z,25
2017-12-28T08:55:56.252Z,25
2017-12-28T08:56:36.780Z,20
2017-12-28T08:57:17.385Z,20
2017-12-28T08:57:57.946Z,20
2017-12-28T08:58:38.459Z,15
2017-12-28T08:59:18.966Z,15
2017-12-28T08:59:59.516Z,15
2017-12-28T09:00:40.030Z,15
2017-12-28T09:01:20.570Z,15
2017-12-28T09:02:01.085Z,15
2017-12-28T09:02:41.619Z,15
2017-12-28T09:03:22.157Z,15
2017-12-28T09:04:02.643Z,15
2017-12-28T09:04:43.174Z,15
2017-12-28T09:05:23.742Z,10
2017-12-28T09:06:04.252Z,10
2017-12-28T09:06:44.797Z,10
2017-12-28T09:07:25.364Z,10
2017-12-28T09:08:05.883Z,10
2017-12-28T09:08:46.409Z,10
2017-12-28T09:09:26.935Z,15
2017-12-28T09:10:07.460Z,15
2017-12-28T09:10:47.979Z,15
2017-12-28T09:11:28.527Z,15
2017-12-28T09:12:09.060Z,20
2017-12-28T09:12:49.557Z,15
2017-12-28T09:13:30.086Z,15
2017-12-28T09:14:10.655Z,15
2017-12-28T09:14:51.166Z,15
2017-12-28T09:15:31.730Z,15
2017-12-28T09:16:12.236Z,20
2017-12-28T09:16:52.766Z,20
2017-12-28T09:17:33.269Z,20
2017-12-28T09:18:13.804Z,20
2017-12-28T09:18:54.297Z,20
2017-12-28T09:19:34.889Z,20
2017-12-28T09:20:15.392Z,20
2017-12-28T09:20:55.911Z,20
2017-12-28T09:21:36.468Z,20
2017-12-28T09:22:17.019Z,20
2017-12-28T09:22:57.562Z,25
2017-12-28T09:23:38.117Z,25
2017-12-28T09:24:18.661Z,30
2017-12-28T09:24:59.164Z,30
2017-12-28T09:25:39.700Z,35
2017-12-28T09:26:20.235Z,35
2017-12-28T09:27:00.771Z,30
2017-12-28T09:27:41.299Z,30
2017-12-28T09:28:21.799Z,30
2017-12-28T09:29:02.328Z,30
2017-12-28T09:29:42.845Z,30
2017-12-28T09:30:23.413Z,30
2017-12-28T09:31:03.918Z,30
2017-12-28T09:31:44.406Z,30
2017-12-28T09:32:25.002Z,30
2017-12-28T09:33:05.507Z,30
2017-12-28T09:33:46.040Z,30
2017-12-28T09:34:26.600Z,30
2017-12-28T09:35:07.090Z,30
2017-12-28T09:35:47.592Z,30
2017-12-28T09:36:28.151Z,30
2017-12-28T09:37:08.647Z,30
2017-12-28T09:37:49.155Z,35
2017-12-28T09:38:29.801Z,35
2017-12-28T09:39:10.284Z,35
2017-12-28T09:39:50.800Z,30
2017-12-28T09:40:31.313Z,30
2017-12-28T09:41:11.955Z,30
2017-12-28T09:41:52.389Z,30
2017-12-28T09:42:32.925Z,30
2017-12-28T09:43:13.501Z,30
2017-12-28T09:43:54.000Z,30
2017-12-28T09:44:34.554Z,30
2017-12-28T09:45:15.074Z,30
2017-12-28T09:45:55.661Z,30
2017-12-28T09:46:36.165Z,30
2017-12-28T09:47:16.721Z,30
2017-12-28T09:47:57.306Z,30
2017-12-28T09:48:37.842Z,30
2017-12-28T09:49:18.394Z,30
2017-12-28T09:49:58.971Z,35
2017-12-28T09:50:39.441Z,40
2017-12-28T09:51:20.005Z,40
2017-12-28T09:52:00.553Z,40
2017-12-28T09:52:41.050Z,45
2017-12-28T09:53:21.551Z,45
2017-12-28T09:54:02.144Z,50